createdAt,value
2022-11-09T00:02:34.021Z,-1.62
2022-11-09T00:05:38.607Z,-1.53
2022-11-09T00:08:42.603Z,-1.37
2022-11-09T00:11:46.291Z,-1.12
2022-11-09T00:14:49.872Z,-0.94
2022-11-09T00:17:52.970Z,-0.73
2022-11-09T00:20:56.665Z,-0.65
2022-11-09T00:24:00.081Z,-0.46
2022-11-09T00:27:03.977Z,-0.36
2022-11-09T00:30:08.314Z,-0.25
2022-11-09T00:33:12.736Z,-0.23
2022-11-09T00:36:21.115Z,0.03
2022-11-09T00:39:24.873Z,0.15
2022-11-09T00:42:33.939Z,0.60
2022-11-09T00:45:37.637Z,0.37
2022-11-09T00:48:41.399Z,0.07
2022-11-09T00:51:45.184Z,0.19
2022-11-09T00:54:49.396Z,0.69
2022-11-09T00:57:52.587Z,0.96
2022-11-09T01:01:00.777Z,0.94
2022-11-09T01:04:04.069Z,0.72
2022-11-09T01:07:09.705Z,1.22
2022-11-09T01:10:12.989Z,0.52
2022-11-09T01:13:19.130Z,0.39
2022-11-09T01:16:24.286Z,0.40
2022-11-09T01:19:27.671Z,0.82
2022-11-09T01:22:32.423Z,1.33
2022-11-09T01:25:35.358Z,1.51
2022-11-09T01:28:38.671Z,1.46
2022-11-09T01:31:41.856Z,1.19
2022-11-09T01:34:45.447Z,1.62
2022-11-09T01:37:49.202Z,1.75
2022-11-09T01:40:52.274Z,1.80
2022-11-09T01:44:15.992Z,1.38
2022-11-09T01:47:25.746Z,1.26
2022-11-09T01:51:00.378Z,2.88
2022-11-09T01:54:09.537Z,4.07
2022-11-09T01:57:21.578Z,4.55
2022-11-09T02:00:24.760Z,4.06
2022-11-09T02:03:38.007Z,1.88
2022-11-09T02:06:41.574Z,2.76
2022-11-09T02:10:14.673Z,4.38
2022-11-09T02:13:23.354Z,2.62
2022-11-09T02:16:27.430Z,1.61
2022-11-09T02:19:31.572Z,1.07
2022-11-09T02:22:35.153Z,0.74
2022-11-09T02:25:40.469Z,0.56
2022-11-09T02:28:44.230Z,0.24
2022-11-09T02:32:04.786Z,-0.13
2022-11-09T02:35:08.626Z,-0.13
2022-11-09T02:38:13.683Z,-0.10
2022-11-09T02:41:18.629Z,-0.23
2022-11-09T02:44:21.834Z,-0.12
2022-11-09T02:47:25.217Z,0.03
2022-11-09T02:50:28.636Z,-0.03
2022-11-09T02:53:33.295Z,-0.15
2022-11-09T02:56:37.840Z,-0.33
2022-11-09T02:59:41.229Z,-0.39
2022-11-09T03:02:44.995Z,-0.38
2022-11-09T03:05:48.990Z,-0.27
2022-11-09T03:08:52.311Z,-0.27
2022-11-09T03:11:56.463Z,-0.21
2022-11-09T03:15:02.565Z,-0.19
2022-11-09T03:18:06.549Z,-0.22
2022-11-09T03:21:09.941Z,-0.22
2022-11-09T03:24:13.364Z,-0.18
2022-11-09T03:27:18.278Z,-0.20
2022-11-09T03:30:24.032Z,-0.09
2022-11-09T03:33:28.287Z,-0.09
2022-11-09T03:36:32.879Z,-0.05
2022-11-09T03:39:36.720Z,-0.17
2022-11-09T03:42:45.286Z,0.01
2022-11-09T03:45:49.017Z,-0.35
2022-11-09T03:48:52.714Z,-0.36
2022-11-09T03:51:56.440Z,-0.17
2022-11-09T03:55:00.099Z,0.00
2022-11-09T03:58:05.379Z,0.13
2022-11-09T04:01:08.536Z,0.18
2022-11-09T04:04:12.028Z,0.31
2022-11-09T04:07:15.418Z,0.45
2022-11-09T04:10:19.562Z,0.59
2022-11-09T04:13:22.806Z,0.58
2022-11-09T04:16:26.656Z,0.65
2022-11-09T04:19:29.707Z,0.66
2022-11-09T04:22:33.157Z,0.69
2022-11-09T04:25:38.204Z,0.76
2022-11-09T04:28:42.422Z,0.79
2022-11-09T04:31:48.492Z,0.77
2022-11-09T04:34:51.514Z,0.98
2022-11-09T04:38:01.591Z,1.01
2022-11-09T04:41:06.386Z,0.95
2022-11-09T04:44:09.428Z,1.02
2022-11-09T04:47:13.041Z,1.10
2022-11-09T04:50:16.326Z,1.17
2022-11-09T04:53:21.332Z,1.39
2022-11-09T04:56:24.623Z,1.47
2022-11-09T04:59:28.299Z,1.68
2022-11-09T05:02:32.765Z,1.70
2022-11-09T05:05:38.588Z,1.71
2022-11-09T05:08:44.369Z,1.67
2022-11-09T05:11:48.868Z,1.87
2022-11-09T05:14:52.544Z,2.16
2022-11-09T05:17:59.249Z,2.09
2022-11-09T05:21:03.783Z,2.02
2022-11-09T05:24:07.463Z,2.02
2022-11-09T05:27:11.093Z,2.01
2022-11-09T05:30:14.205Z,2.25
2022-11-09T05:33:18.154Z,2.60
2022-11-09T05:36:22.742Z,3.12
2022-11-09T05:39:25.883Z,5.16
2022-11-09T05:42:29.593Z,7.54
2022-11-09T05:45:47.790Z,7.93
2022-11-09T05:48:50.770Z,7.14
2022-11-09T05:51:54.009Z,5.89
2022-11-09T05:54:57.669Z,5.96
2022-11-09T05:58:01.821Z,6.83
2022-11-09T06:01:07.454Z,9.81
2022-11-09T06:04:11.121Z,9.48
2022-11-09T06:07:15.010Z,6.50
2022-11-09T06:10:18.778Z,4.90
2022-11-09T06:13:23.214Z,3.89
2022-11-09T06:16:26.920Z,4.05
2022-11-09T06:19:31.148Z,4.78
2022-11-09T06:22:34.764Z,4.59
2022-11-09T06:25:39.255Z,4.24
2022-11-09T06:28:43.513Z,3.65
2022-11-09T06:31:49.750Z,2.92
2022-11-09T06:34:53.654Z,2.88
2022-11-09T06:37:59.240Z,3.11
2022-11-09T06:41:02.965Z,4.27
2022-11-09T06:44:06.497Z,4.78
2022-11-09T06:47:10.116Z,4.30
2022-11-09T06:50:14.145Z,3.31
2022-11-09T06:53:18.609Z,3.17
2022-11-09T06:56:22.952Z,3.42
2022-11-09T06:59:26.693Z,3.60
2022-11-09T07:02:32.808Z,3.32
2022-11-09T07:05:40.341Z,3.01
2022-11-09T07:08:44.436Z,2.47
2022-11-09T07:11:49.793Z,2.46
2022-11-09T07:14:53.763Z,2.72
2022-11-09T07:18:00.897Z,2.93
2022-11-09T07:21:11.447Z,2.76
2022-11-09T07:24:17.487Z,2.43
2022-11-09T07:27:26.354Z,2.30
2022-11-09T07:30:31.393Z,2.77
2022-11-09T07:33:35.864Z,2.88
2022-11-09T07:36:39.946Z,3.28
2022-11-09T07:39:43.403Z,4.06
2022-11-09T07:42:46.530Z,3.55
2022-11-09T07:45:49.858Z,2.78
2022-11-09T07:48:53.529Z,2.13
2022-11-09T07:51:56.521Z,1.75
2022-11-09T07:55:00.559Z,1.45
2022-11-09T07:58:23.363Z,1.19
2022-11-09T08:01:26.646Z,0.93
2022-11-09T08:04:30.396Z,0.85
2022-11-09T08:07:35.229Z,0.98
2022-11-09T08:10:39.321Z,1.07
2022-11-09T08:13:42.842Z,1.08
2022-11-09T08:16:46.470Z,0.94
2022-11-09T08:19:49.657Z,0.82
2022-11-09T08:22:53.305Z,0.71
2022-11-09T08:25:56.516Z,0.64
2022-11-09T08:28:59.550Z,0.56
2022-11-09T08:32:03.171Z,0.35
2022-11-09T08:35:07.317Z,0.13
2022-11-09T08:38:11.598Z,-0.10
2022-11-09T08:41:15.283Z,-0.12
2022-11-09T08:44:18.808Z,-0.13
2022-11-09T08:47:22.510Z,-0.15
2022-11-09T08:50:26.352Z,-0.23
2022-11-09T08:53:30.689Z,-0.29
2022-11-09T08:56:34.636Z,-0.32
2022-11-09T08:59:38.399Z,-0.39
2022-11-09T09:02:42.039Z,-0.44
2022-11-09T09:05:45.670Z,-0.48
2022-11-09T09:08:49.730Z,-0.51
2022-11-09T09:11:53.261Z,-0.53
2022-11-09T09:14:56.946Z,-0.58
2022-11-09T09:18:04.688Z,-0.65
2022-11-09T09:21:10.309Z,-0.70
2022-11-09T09:24:13.795Z,-0.70
2022-11-09T09:27:17.500Z,-0.75
2022-11-09T09:30:21.838Z,-0.76
2022-11-09T09:33:24.738Z,-0.84
2022-11-09T09:36:28.723Z,-0.86
2022-11-09T09:39:31.660Z,-0.87
2022-11-09T09:42:43.809Z,-0.89
2022-11-09T09:45:53.700Z,-0.93
2022-11-09T09:49:08.795Z,-0.96
2022-11-09T09:52:26.951Z,-0.94
2022-11-09T09:56:13.369Z,-0.94
2022-11-09T09:59:27.939Z,-1.03
2022-11-09T10:02:36.723Z,-1.07
2022-11-09T10:06:28.053Z,-1.17
2022-11-09T10:10:07.721Z,-1.31
2022-11-09T10:13:19.526Z,-1.40
2022-11-09T10:16:29.062Z,-1.49
2022-11-09T10:19:32.013Z,-1.55
2022-11-09T10:23:13.241Z,-1.61
2022-11-09T10:26:28.186Z,-1.66
2022-11-09T10:29:44.681Z,-1.70
2022-11-09T10:32:54.976Z,-1.80
2022-11-09T10:36:17.950Z,-1.75
2022-11-09T10:39:23.416Z,-1.80
2022-11-09T10:42:51.592Z,-1.86
2022-11-09T10:46:12.777Z,-1.94
2022-11-09T10:49:34.714Z,-2.02
2022-11-09T10:53:16.980Z,-2.09
2022-11-09T10:57:05.521Z,-2.08
2022-11-09T11:00:29.093Z,-2.11
2022-11-09T11:03:54.714Z,-2.10
2022-11-09T11:07:21.807Z,-2.14
2022-11-09T11:10:43.198Z,-2.21
2022-11-09T11:14:40.927Z,-2.20
2022-11-09T11:18:04.630Z,-2.24
2022-11-09T11:21:29.869Z,-2.42
2022-11-09T11:25:03.595Z,-2.51
2022-11-09T11:28:42.953Z,-2.66
2022-11-09T11:32:04.679Z,-2.74
2022-11-09T11:35:45.122Z,-2.77
2022-11-09T11:39:38.615Z,-2.91
2022-11-09T11:43:18.001Z,-2.89
2022-11-09T11:47:09.584Z,-3.00
2022-11-09T11:50:56.850Z,-3.13
2022-11-09T11:54:39.198Z,-3.23
2022-11-09T11:58:36.900Z,-3.18
2022-11-09T12:02:25.485Z,-3.21
2022-11-09T12:05:58.735Z,-3.29
2022-11-09T12:09:53.180Z,-3.41
2022-11-09T12:13:18.930Z,-3.50
2022-11-09T12:16:49.161Z,-3.49
2022-11-09T12:20:30.033Z,-3.82
2022-11-09T12:24:15.502Z,-4.10
2022-11-09T12:27:50.325Z,-4.06
2022-11-09T12:31:33.971Z,-4.14
2022-11-09T12:35:13.207Z,-4.20
2022-11-09T12:38:45.934Z,-4.29
2022-11-09T12:42:32.667Z,-4.30
2022-11-09T12:45:55.306Z,-4.29
2022-11-09T12:49:34.352Z,-4.40
2022-11-09T12:52:57.459Z,-4.52
2022-11-09T12:56:25.092Z,-4.56
2022-11-09T12:59:54.335Z,-4.53
2022-11-09T13:03:30.447Z,-4.55
2022-11-09T13:07:04.786Z,-4.65
2022-11-09T13:10:33.168Z,-4.69
2022-11-09T13:14:24.076Z,-4.76
2022-11-09T13:18:02.407Z,-5.06
2022-11-09T13:21:23.923Z,-5.28
2022-11-09T13:24:54.447Z,-5.41
2022-11-09T13:28:28.937Z,-5.55
2022-11-09T13:32:12.764Z,-5.55
2022-11-09T13:35:56.061Z,-5.50
2022-11-09T13:39:29.504Z,-5.48
2022-11-09T13:43:03.181Z,-5.49
2022-11-09T13:46:28.086Z,-5.43
2022-11-09T13:49:51.797Z,-5.43
2022-11-09T13:53:55.589Z,-5.51
2022-11-09T13:57:17.444Z,-5.79
2022-11-09T14:00:39.825Z,-5.79
2022-11-09T14:04:02.588Z,-5.88
2022-11-09T14:07:28.614Z,-5.98
2022-11-09T14:11:20.503Z,-6.21
2022-11-09T14:14:48.384Z,-6.37
2022-11-09T14:18:30.868Z,-6.37
2022-11-09T14:21:53.698Z,-6.29
2022-11-09T14:25:18.717Z,-6.19
2022-11-09T14:28:41.035Z,-6.17
2022-11-09T14:32:24.225Z,-6.24
2022-11-09T14:35:46.766Z,-6.41
2022-11-09T14:39:28.246Z,-6.48
2022-11-09T14:43:03.180Z,-6.43
2022-11-09T14:46:28.881Z,-6.41
2022-11-09T14:49:51.931Z,-6.42
2022-11-09T14:53:35.868Z,-6.38
2022-11-09T14:56:57.914Z,-6.40
2022-11-09T15:00:34.207Z,-6.48
2022-11-09T15:04:18.241Z,-6.59
2022-11-09T15:07:40.232Z,-6.77
2022-11-09T15:11:03.132Z,-6.80
2022-11-09T15:14:35.895Z,-7.01
2022-11-09T15:17:58.207Z,-7.30
2022-11-09T15:21:26.019Z,-7.31
2022-11-09T15:24:49.674Z,-7.39
2022-11-09T15:28:14.282Z,-7.45
2022-11-09T15:31:35.815Z,-7.45
2022-11-09T15:34:59.950Z,-7.37
2022-11-09T15:38:42.235Z,-7.37
2022-11-09T15:42:04.125Z,-7.49
2022-11-09T15:45:26.517Z,-7.57
2022-11-09T15:48:48.509Z,-7.69
2022-11-09T15:52:12.435Z,-7.72
2022-11-09T15:55:34.240Z,-7.64
2022-11-09T15:58:55.685Z,-7.62
2022-11-09T16:02:19.664Z,-7.60
2022-11-09T16:05:41.185Z,-7.57
2022-11-09T16:09:03.341Z,-7.81
2022-11-09T16:12:25.205Z,-7.92
2022-11-09T16:15:47.299Z,-8.09
2022-11-09T16:19:14.554Z,-8.05
2022-11-09T16:22:35.505Z,-8.07
2022-11-09T16:25:57.223Z,-8.08
2022-11-09T16:29:18.496Z,-8.03
2022-11-09T16:32:40.527Z,-7.86
2022-11-09T16:36:07.236Z,-7.75
2022-11-09T16:39:29.229Z,-7.76
2022-11-09T16:42:52.733Z,-7.76
2022-11-09T16:46:20.882Z,-7.76
2022-11-09T16:49:42.566Z,-7.85
2022-11-09T16:53:05.579Z,-7.77
2022-11-09T16:56:28.036Z,-7.87
2022-11-09T16:59:49.130Z,-7.92
2022-11-09T17:03:11.627Z,-8.03
2022-11-09T17:06:36.125Z,-8.15
2022-11-09T17:09:58.008Z,-8.21
2022-11-09T17:13:20.535Z,-8.26
2022-11-09T17:16:42.752Z,-8.34
2022-11-09T17:20:07.604Z,-8.41
2022-11-09T17:23:29.239Z,-8.46
2022-11-09T17:26:51.822Z,-8.46
2022-11-09T17:30:13.723Z,-8.40
2022-11-09T17:33:36.628Z,-8.40
2022-11-09T17:37:04.357Z,-8.40
2022-11-09T17:40:26.509Z,-8.52
2022-11-09T17:43:48.277Z,-8.67
2022-11-09T17:47:10.439Z,-8.71
2022-11-09T17:50:32.798Z,-8.82
2022-11-09T17:53:55.198Z,-8.98
2022-11-09T17:57:16.636Z,-9.04
2022-11-09T18:00:40.118Z,-8.98
2022-11-09T18:04:05.508Z,-8.99
2022-11-09T18:07:28.355Z,-9.20
2022-11-09T18:10:50.697Z,-9.11
2022-11-09T18:14:12.827Z,-9.10
2022-11-09T18:17:34.041Z,-9.06
2022-11-09T18:20:56.645Z,-9.01
2022-11-09T18:24:19.003Z,-9.07
2022-11-09T18:27:41.610Z,-9.08
2022-11-09T18:31:05.630Z,-9.19
2022-11-09T18:34:27.002Z,-9.17
2022-11-09T18:37:49.293Z,-9.12
2022-11-09T18:41:14.614Z,-9.13
2022-11-09T18:44:36.299Z,-9.13
2022-11-09T18:47:58.040Z,-9.07
2022-11-09T18:51:20.911Z,-9.08
2022-11-09T18:54:42.526Z,-8.98
2022-11-09T18:58:03.828Z,-9.04
2022-11-09T19:01:27.961Z,-9.14
2022-11-09T19:04:49.891Z,-9.10
2022-11-09T19:08:11.843Z,-9.11
2022-11-09T19:11:33.849Z,-9.03
2022-11-09T19:14:56.147Z,-9.15
2022-11-09T19:18:18.804Z,-9.22
2022-11-09T19:21:46.630Z,-9.11
2022-11-09T19:25:09.672Z,-9.09
2022-11-09T19:28:31.532Z,-9.20
2022-11-09T19:31:53.206Z,-9.50
2022-11-09T19:35:18.214Z,-9.62
2022-11-09T19:38:45.520Z,-9.54
2022-11-09T19:42:07.786Z,-9.50
2022-11-09T19:45:30.449Z,-9.60
2022-11-09T19:48:52.884Z,-9.54
2022-11-09T19:52:14.694Z,-9.50
2022-11-09T19:55:35.806Z,-9.34
2022-11-09T19:59:01.826Z,-9.41
2022-11-09T20:02:24.774Z,-9.34
2022-11-09T20:05:46.844Z,-9.28
2022-11-09T20:09:09.327Z,-9.38
2022-11-09T20:12:50.154Z,-9.34
2022-11-09T20:16:12.134Z,-9.34
2022-11-09T20:19:33.403Z,-9.59
2022-11-09T20:22:56.017Z,-9.89
2022-11-09T20:26:18.440Z,-9.91
2022-11-09T20:29:40.862Z,-9.87
2022-11-09T20:33:03.245Z,-9.88
2022-11-09T20:36:24.767Z,-9.78
2022-11-09T20:39:46.397Z,-9.79
2022-11-09T20:43:08.983Z,-9.85
2022-11-09T20:46:35.720Z,-9.97
2022-11-09T20:49:59.216Z,-10.01
2022-11-09T20:53:21.252Z,-9.97
2022-11-09T20:56:43.426Z,-10.21
2022-11-09T21:00:06.517Z,-10.22
2022-11-09T21:03:29.105Z,-10.23
2022-11-09T21:06:51.431Z,-10.29
2022-11-09T21:10:13.873Z,-10.34
2022-11-09T21:13:35.642Z,-10.36
2022-11-09T21:16:58.128Z,-10.36
2022-11-09T21:20:19.873Z,-10.46
2022-11-09T21:24:00.869Z,-10.41
2022-11-09T21:27:47.609Z,-10.35
2022-11-09T21:31:10.605Z,-10.24
2022-11-09T21:34:36.455Z,-10.25
2022-11-09T21:37:59.477Z,-10.26
2022-11-09T21:41:39.997Z,-10.28
2022-11-09T21:45:02.420Z,-10.31
2022-11-09T21:48:24.674Z,-10.32
2022-11-09T21:51:47.844Z,-10.32
2022-11-09T21:55:10.044Z,-10.35
2022-11-09T21:58:33.076Z,-10.35
2022-11-09T22:01:55.179Z,-10.29
2022-11-09T22:05:22.658Z,-10.31
2022-11-09T22:08:46.460Z,-10.31
2022-11-09T22:12:27.308Z,-10.66
2022-11-09T22:16:07.132Z,-10.51
2022-11-09T22:19:48.456Z,-10.48
2022-11-09T22:23:10.172Z,-10.38
2022-11-09T22:26:32.939Z,-10.45
2022-11-09T22:29:54.808Z,-10.37
2022-11-09T22:33:24.300Z,-10.27
2022-11-09T22:36:49.022Z,-10.27
2022-11-09T22:40:11.710Z,-10.23
2022-11-09T22:43:35.018Z,-10.15
2022-11-09T22:46:56.955Z,-10.09
2022-11-09T22:50:19.291Z,-9.98
2022-11-09T22:53:41.878Z,-10.06
2022-11-09T22:57:04.347Z,-9.95
2022-11-09T23:00:26.673Z,-10.07
2022-11-09T23:03:48.849Z,-10.32
2022-11-09T23:07:11.534Z,-10.53
2022-11-09T23:10:34.052Z,-10.58
2022-11-09T23:13:57.154Z,-10.61
2022-11-09T23:17:48.483Z,-10.50
2022-11-09T23:21:10.792Z,-10.50
2022-11-09T23:24:50.482Z,-10.45
2022-11-09T23:28:13.484Z,-10.46
2022-11-09T23:31:34.746Z,-10.40
2022-11-09T23:34:56.315Z,-10.39
2022-11-09T23:38:17.569Z,-10.57
2022-11-09T23:41:39.691Z,-10.56
2022-11-09T23:45:00.745Z,-10.37
2022-11-09T23:48:24.395Z,-10.24
2022-11-09T23:51:45.847Z,-10.20
2022-11-09T23:55:07.831Z,-10.05
2022-11-09T23:58:30.951Z,-10.02
